Relevés horaires Elsenborn (Belgique)


Relevés horaires à Elsenborn - Vendredi 10 Mars 2017
Heure UTC1 Température [°C] Vent [km/h] Hum. [%] Pres.4 [hPa] Visi. [Km] Nébu. [octa] Préc.5 [mm] Cond.
2m. Res. Ros. Dir.2 Vit. Moy. Raf.3
23:00 -2.1 -2.1 -2.1 NNO 1.9 -- 1.9 100 1028.5(-0.5/3h) 1.9 -- -- Du brouillard ou du brouillard glacé (plus correctement designé sous le nom de brume) est observé et la visibilité n'est ni inférieure à 5/8 de mille ni supérieure à 6 milles
22:00 -2.0 -2.0 -2.5 NNO 1.9 -- 0.0 96 1028.7(-0.5/3h) 14 -- -- --
21:00 -0.6 -0.6 -1.3 NNO 1.9 -- 3.7 95 1028.4(-0.4/3h) 8 -- -- --
20:00 0.0 0.0 -1.5 NNO 1.9 -- 3.7 90 1028.5(0.0/3h) 20 -- -- --
19:00 2.1 2.1 -0.6 NNO 1.9 -- 3.7 82 1028.2(0.5/3h) 20 -- -- --
18:00 5.0 5.0 -0.2 NNO 1.9 -- 7.4 69 1027.4(0.0/3h) 20 -- -- --
17:00 7.7 7.7 -4.2 NNO 1.9 -- 5.6 43 1026.5(-0.7/3h) 20 -- -- --
16:00 9.4 9.4 -3.2 NNO 1.9 -- 5.6 41 1025.9(-1.2/3h) 20 -- -- --
15:00 9.4 9.4 -4.7 NNO 1.9 -- 7.4 37 1026.4(-1.1/3h) 20 -- -- --
14:00 9.7 9.7 -6.0 O 3.7 -- 7.4 32 1026.7(-1.3/3h) 20 -- -- --
13:00 8.9 8.9 -5.1 O 3.7 -- 7.4 37 1027.4(-0.8/3h) 20 -- -- --
12:00 7.7 7.7 -3.5 ESE 3.7 -- 7.4 45 1028(-0.6/3h) 20 -- -- --
11:00 6.6 6.6 -1.1 NNO 1.9 -- 7.4 58 1029(0.4/3h) 20 -- -- --
10:00 4.9 4.9 -0.2 NNO 1.9 -- 7.4 69 1029.2(0.2/3h) 20 -- -- --
09:00 3.1 3.1 -0.5 NNE 3.7 -- 7.4 77 1029.9(0.9/3h) 20 -- -- --
08:00 1.8 1.8 -1.2 NNO 1.9 -- 3.7 80 1029.7(0.7/3h) 19 -- -- --
07:00 -0.3 -0.3 -0.7 NNO 1.9 -- 3.7 97 1030.4(1.0/3h) 14 -- -- --
06:00 -0.2 -0.2 -0.6 NNO 1.9 -- 13.0 97 1029.7(0.5/3h) 18 -- -- --
05:00 0.1 0.1 -0.9 NNO 1.9 -- 5.6 93 1029.4(0.5/3h) 20 -- -- --
04:00 0.9 0.9 -0.2 NNO 1.9 -- 7.4 92 1028.9(0.6/3h) 20 -- -- --
03:00 1.2 1.2 -- N 3.7 -- 13.0 -- 1028.7(0.7/3h) 20 -- -- --
02:00 1.2 -0.5 -- N 5.6 -- 13.0 -- 1028.5(1.3/3h) 20 -- -- --
01:00 1.6 -0.7 0.5 N 7.4 -- 11.1 92 1028(1.5/3h) 19 -- -- --
00:00 1.7 1.7 1.1 NNO 1.9 -- 16.7 96 1027.7(1.7/3h) 13 -- -- --

1 Coordinated Universal Time. Actuellement il est 12:00 locale et 10:00 UTC.

2 Le vent souffle depuis la direction indiquée vers la direction oposée.

3 Les rafales max. sont disponible 40 min après l'heure du relevé.

4 Pour les stations d'altitude (plus de 600m) le géopotentiel du niveau le plus proche de la pression obligatoire est indiqué.

5 Les stations disposant d'un diffuseur peuvent indiquer "trace". Cela signifie que des précipitations ont touchés le sol mais que la quantité est inférieure à 0.1 mm.

Récapitulatif de la journée
Température [°C] Vent [km/h] Ensoleillement4 [h] Precipitations totale5 [mm] Pression [Hpa]
Min1 Max.2 Moy.3 Max. Min Max.
-0.2 10.1 0 16.7 0 h 0 min 0 1025.9 1030.4

1 Température minimale relevée entre 18:00 UTC la veille et 18:00 UTC le jour donné.

2 Température maximale relevée entre 06:00 UTC le jour donné et 06:00 UTC le lendemain.

3 Vent moyen de la journée basé sur les relevés horaires.

4 Ensoleillement en heures relevé entre 06:00 UTC la veille et 06:00 UTC le jour donné.

5 Précipitations totales tombées entre 06:00 UTC la jour donné et 06:00 UTC le lendemain.

Graphiques horaires